Rome, NY (13440)

11:42 AM EDT on August 21, 2014 (GMT -0400)
Teugega | Change Station
CLOSE
Current Station
Personal Weather Station
Location: Rome, NY
Elevation: 570 ft
Nearby Weather Stations
Active Advisory: Special Statement

Elev 570 ft 43.28 °N, 75.44 °W | Updated 208 days ago

Thunderstorm
Thunderstorm
73 °F
Feels Like 73 °F
N
3
Wind Variable Wind from SSE
Gusts 5 mph

Today
High -- | Low -- °F
--% Chance of Precip.
Yesterday
High -- | Low -- °F
Precip. -- in
6:13 AM 7:55 PM
Waning Crescent, 13% visible
Pressure 30.00 in
Visibility 10.0 miles
Clouds Scattered Clouds 1300 ft
Mostly Cloudy 2800 ft
Mostly Cloudy 11000 ft
Dew Point 68 °F
Humidity 80%
Rainfall 0.00 in
Snow Depth Not available.
UV 4 out of 12
Pollen 3.60 out of 12
PM2.5 Good
Flu Activity Not available.
SPECI KRME 211537Z AUTO 12007KT 10SM SCT013 BKN028 BKN110 23/20 A3000 RMK AO2 T02280200 TSNO $

More Conditions Fewer Conditions

Pressure 30.00 in
Visibility 10.0 miles
Clouds Scattered Clouds 1300 ft
Mostly Cloudy 2800 ft
Mostly Cloudy 11000 ft
Dew Point 68 °F
Humidity 80%
Rainfall 0.00 in
Snow Depth Not available.
UV 4 out of 12
Pollen 3.60 out of 12
PM2.5 Good
Flu Activity Not available.
SPECI KRME 211537Z AUTO 12007KT 10SM SCT013 BKN028 BKN110 23/20 A3000 RMK AO2 T02280200 TSNO $

More Conditions Fewer Conditions

10-Day Weather Forecast

Almanac

Astronomy

Aug. 21, 2014 Rise Set
Actual Time 6:13 AM EDT 7:55 PM EDT
Civil Twilight 5:43 AM EDT 8:25 PM EDT
Nautical Twilight 5:06 AM EDT 9:01 PM EDT
Astronomical Twilight 4:27 AM EDT 9:41 PM EDT
Moon 2:39 AM EDT 5:24 PM EDT
Length of Visible Light 14h 41m
Length of Day
13h 41m
Tomorrow will be 2m 42s shorter.
Waning Crescent, 13% of the Moon is Illuminated
Today
Waning Crescent
Aug 25
New
Sep 2
First Quarter
Sep 8
Full
Sep 15
Last Quarter

Today's Extremes

State Highs State Lows

Community

WunderPhotos

Upload Photos

1,745,949 photos uploaded!

Nearby

Air Quality

  Air Quality AQ Index Pollutant
Yesterday Good
PM2.5
Yesterday Good
OZONE
Current Good
PM2.5
Thursday Good
PM2.5
Thursday Good
OZONE

Snow Depth

Station Depth Elevation
No new snow has been reported.

Earthquake Activity

City Distance Mag. Time & Date
No recent earthquake activity has been reported nearby.
Minimum magnitude displayed is 2.5.

Coastal Water Temperatures

Place Temperature
No Stations Reporting

Nearby Weather Stations